Time;durP1;ratioP1;P1;durP2;ratioP2;P2;SDS_P1;SDS_P2;PMS_P1;PMS_P2;Temp;Humidity;BMP_temperature;BMP_pressure;BME280_temperature;BME280_humidity;BME280_pressure;Samples;Min_cycle;Max_cycle;Signal;HPM_P1;HPM_P2
2021/11/16 00:01:01;;;;;;;5.47;3.97;;;21.10;53.40;;;;;;6217790;28;20018;-67
2021/11/16 00:04:02;;;;;;;5.00;3.85;;;21.10;53.40;;;;;;6218844;28;20038;-67
2021/11/16 00:07:05;;;;;;;5.10;3.88;;;21.10;53.40;;;;;;6219257;28;20026;-67
2021/11/16 00:10:08;;;;;;;4.38;3.30;;;21.00;53.30;;;;;;6206447;28;20034;-67
2021/11/16 00:13:11;;;;;;;6.05;4.07;;;21.10;53.40;;;;;;6186164;28;20089;-67
2021/11/16 00:16:12;;;;;;;5.45;4.35;;;21.10;53.40;;;;;;6170105;28;20027;-67
2021/11/16 00:19:14;;;;;;;4.82;3.60;;;21.10;53.40;;;;;;6202363;28;20029;-65
2021/11/16 00:22:18;;;;;;;5.35;3.80;;;21.10;53.40;;;;;;6219052;28;20212;-67
2021/11/16 00:25:21;;;;;;;5.03;3.78;;;21.00;53.30;;;;;;6213005;28;20025;-67
2021/11/16 00:28:23;;;;;;;5.97;4.18;;;21.10;53.40;;;;;;6213242;28;20018;-66
2021/11/16 00:31:23;;;;;;;4.93;3.83;;;21.10;53.40;;;;;;6212538;28;20575;-67
2021/11/16 00:34:24;;;;;;;5.93;4.13;;;21.10;53.40;;;;;;6169978;28;20027;-66
2021/11/16 00:37:26;;;;;;;5.43;3.80;;;21.00;53.40;;;;;;6170858;28;20107;-66
2021/11/16 00:40:27;;;;;;;6.05;4.20;;;21.00;53.40;;;;;;6170233;28;20014;-71
2021/11/16 00:43:28;;;;;;;5.55;4.22;;;21.00;53.30;;;;;;6206297;28;20045;-68
2021/11/16 00:46:29;;;;;;;6.72;4.20;;;21.00;53.30;;;;;;6217896;28;20038;-66
2021/11/16 00:49:29;;;;;;;5.07;3.75;;;21.00;53.40;;;;;;6194098;28;20113;-67
2021/11/16 00:52:30;;;;;;;6.68;4.15;;;21.00;53.30;;;;;;6202333;28;20030;-69
2021/11/16 00:55:31;;;;;;;6.40;4.15;;;21.10;53.40;;;;;;6217330;28;20029;-67
2021/11/16 00:58:32;;;;;;;5.07;3.67;;;21.00;53.40;;;;;;6202029;28;20106;-69
2021/11/16 01:01:33;;;;;;;6.05;4.20;;;21.00;53.40;;;;;;6216556;28;20018;-66
2021/11/16 01:04:34;;;;;;;6.22;4.15;;;21.00;53.40;;;;;;6217607;28;20110;-66
2021/11/16 01:07:34;;;;;;;5.50;4.10;;;21.00;53.30;;;;;;6216834;28;20026;-66
2021/11/16 01:10:36;;;;;;;5.70;4.20;;;21.00;53.40;;;;;;6216795;28;20022;-66
2021/11/16 01:13:37;;;;;;;6.85;4.55;;;21.00;53.30;;;;;;6207475;28;20130;-66
2021/11/16 01:16:40;;;;;;;5.18;4.03;;;21.00;53.40;;;;;;6192675;28;20026;-66
2021/11/16 01:19:42;;;;;;;5.57;4.22;;;21.00;53.40;;;;;;6192864;28;20026;-66
2021/11/16 01:22:45;;;;;;;6.05;4.22;;;21.00;53.30;;;;;;6195341;28;20556;-66
2021/11/16 01:25:47;;;;;;;6.93;4.80;;;21.00;53.40;;;;;;6216892;28;20061;-66
2021/11/16 01:28:48;;;;;;;5.43;4.35;;;21.00;53.40;;;;;;6216251;28;20752;-66
2021/11/16 01:31:51;;;;;;;6.78;4.57;;;21.00;53.30;;;;;;6188213;28;20088;-66
2021/11/16 01:34:52;;;;;;;5.50;4.20;;;21.00;53.30;;;;;;6216876;28;20434;-66
2021/11/16 01:37:52;;;;;;;5.63;4.13;;;21.00;53.30;;;;;;6216375;28;20017;-66
2021/11/16 01:40:53;;;;;;;4.93;3.53;;;21.00;53.40;;;;;;6216994;28;20369;-66
2021/11/16 01:43:55;;;;;;;5.22;4.00;;;21.00;53.40;;;;;;6216498;28;20025;-66
2021/11/16 01:46:55;;;;;;;6.22;4.32;;;21.00;53.30;;;;;;6216540;28;20037;-66
2021/11/16 01:49:56;;;;;;;5.60;4.50;;;21.00;53.30;;;;;;6216490;28;20030;-66
2021/11/16 01:52:57;;;;;;;5.63;4.15;;;21.00;53.30;;;;;;6216380;28;20018;-66
2021/11/16 01:55:58;;;;;;;6.40;4.43;;;21.00;53.30;;;;;;6216691;28;20542;-67
2021/11/16 01:58:59;;;;;;;5.90;4.50;;;21.00;53.30;;;;;;6216167;28;20101;-67
2021/11/16 02:02:01;;;;;;;6.63;4.60;;;21.00;53.30;;;;;;6215086;28;20064;-66
2021/11/16 02:05:03;;;;;;;5.63;4.20;;;21.00;53.30;;;;;;6216638;28;20117;-66
2021/11/16 02:08:04;;;;;;;5.90;4.65;;;21.00;53.30;;;;;;6218362;28;20034;-66
2021/11/16 02:11:05;;;;;;;6.88;4.90;;;21.00;53.30;;;;;;6221558;28;20076;-67
2021/11/16 02:14:08;;;;;;;7.22;4.50;;;21.00;53.30;;;;;;6206450;28;20109;-66
2021/11/16 02:17:09;;;;;;;5.22;3.95;;;21.00;53.30;;;;;;6196701;28;20396;-66
2021/11/16 02:20:10;;;;;;;4.65;3.80;;;21.00;53.30;;;;;;6220433;28;20030;-66
2021/11/16 02:23:12;;;;;;;5.35;4.07;;;21.00;53.30;;;;;;6221228;28;20109;-66
2021/11/16 02:26:13;;;;;;;6.90;4.50;;;21.00;53.30;;;;;;6219482;28;20025;-66
2021/11/16 02:29:14;;;;;;;6.13;4.63;;;21.00;53.20;;;;;;6220804;28;20492;-66
2021/11/16 02:32:15;;;;;;;6.25;4.47;;;21.00;53.30;;;;;;6192459;28;20096;-66
2021/11/16 02:35:17;;;;;;;5.70;4.47;;;21.00;53.30;;;;;;6219577;28;20030;-66
2021/11/16 02:38:19;;;;;;;6.80;4.53;;;21.00;53.30;;;;;;6220497;28;20030;-66
2021/11/16 02:41:19;;;;;;;6.55;4.45;;;21.00;53.30;;;;;;6220176;28;20369;-66
2021/11/16 02:44:22;;;;;;;6.05;4.32;;;21.00;53.30;;;;;;6220471;28;20026;-66
2021/11/16 02:47:22;;;;;;;7.28;4.95;;;21.00;53.30;;;;;;6212240;28;20033;-66
2021/11/16 02:50:24;;;;;;;9.80;4.57;;;21.00;53.30;;;;;;6195947;28;20475;-66
2021/11/16 02:53:25;;;;;;;7.25;4.55;;;21.00;53.20;;;;;;6211585;28;20064;-66
2021/11/16 02:56:26;;;;;;;6.13;4.43;;;21.00;53.30;;;;;;6220646;28;20037;-66
2021/11/16 02:59:27;;;;;;;6.57;4.53;;;21.00;53.30;;;;;;6196047;28;20490;-66
2021/11/16 03:02:28;;;;;;;6.13;4.45;;;21.00;53.30;;;;;;6202194;28;20113;-67
2021/11/16 03:05:34;;;;;;;5.88;4.43;;;21.00;53.30;;;;;;6219970;28;20026;-66
2021/11/16 03:08:35;;;;;;;8.02;4.72;;;21.00;53.30;;;;;;6204961;28;20110;-66
2021/11/16 03:11:35;;;;;;;5.55;4.20;;;21.00;53.40;;;;;;6195432;28;20030;-67
2021/11/16 03:14:36;;;;;;;6.88;4.55;;;21.00;53.30;;;;;;6200671;28;20026;-66
2021/11/16 03:17:37;;;;;;;6.80;5.05;;;21.00;53.20;;;;;;6194929;28;20049;-66
2021/11/16 03:20:38;;;;;;;6.68;4.38;;;21.00;53.30;;;;;;6194968;28;20023;-66
2021/11/16 03:23:44;;;;;;;6.57;4.75;;;21.00;53.30;;;;;;6206242;28;20052;-67
2021/11/16 03:26:45;;;;;;;6.82;4.80;;;21.00;53.30;;;;;;6219314;28;20029;-66
2021/11/16 03:29:48;;;;;;;6.70;4.63;;;21.00;53.30;;;;;;6209932;28;20015;-66
2021/11/16 03:32:48;;;;;;;6.72;4.57;;;21.00;53.30;;;;;;6198743;28;20108;-66
2021/11/16 03:35:50;;;;;;;6.25;4.60;;;21.00;53.30;;;;;;6218957;28;20032;-66
2021/11/16 03:38:52;;;;;;;6.63;4.43;;;21.00;53.30;;;;;;6218805;28;20471;-66
2021/11/16 03:41:53;;;;;;;8.30;4.95;;;21.00;53.30;;;;;;6213893;28;20034;-66
2021/11/16 03:44:54;;;;;;;5.93;4.45;;;21.00;53.30;;;;;;6194984;28;20027;-66
2021/11/16 03:47:57;;;;;;;7.50;5.38;;;21.00;53.30;;;;;;6207004;28;20038;-66
2021/11/16 03:50:59;;;;;;;6.05;4.60;;;21.00;53.20;;;;;;6219135;28;20037;-66
2021/11/16 03:53:59;;;;;;;5.28;4.13;;;21.00;53.20;;;;;;6219142;28;20026;-66
2021/11/16 03:57:01;;;;;;;7.13;4.97;;;21.00;53.30;;;;;;6218334;28;20034;-66
2021/11/16 04:00:41;;;;;;;6.78;4.18;;;21.00;53.30;;;;;;6219383;28;20068;-66
2021/11/16 04:03:41;;;;;;;5.90;4.32;;;21.00;53.30;;;;;;6218838;28;20026;-66
2021/11/16 04:06:42;;;;;;;7.40;5.15;;;21.00;53.30;;;;;;6218586;28;20388;-66
2021/11/16 04:09:43;;;;;;;7.50;4.85;;;21.00;53.30;;;;;;6197891;28;20038;-66
2021/11/16 04:12:45;;;;;;;6.60;4.47;;;21.00;53.20;;;;;;6193603;28;20089;-66
2021/11/16 04:15:48;;;;;;;6.40;4.53;;;21.00;53.20;;;;;;6194234;28;20058;-66
2021/11/16 04:18:50;;;;;;;5.88;4.60;;;21.00;53.20;;;;;;6204704;28;20010;-66
2021/11/16 04:21:50;;;;;;;6.75;5.10;;;21.00;53.30;;;;;;6218587;28;20056;-66
2021/11/16 04:24:51;;;;;;;8.70;5.50;;;21.00;53.30;;;;;;6214923;28;20030;-66
2021/11/16 04:27:52;;;;;;;6.88;4.97;;;21.00;53.20;;;;;;6193677;28;20435;-66
2021/11/16 04:30:54;;;;;;;6.22;4.88;;;21.00;53.30;;;;;;6178403;28;20030;-66
2021/11/16 04:34:05;;;;;;;7.45;5.45;;;21.00;53.30;;;;;;6192682;28;20030;-66
2021/11/16 04:37:06;;;;;;;6.68;4.90;;;21.00;53.30;;;;;;6193595;28;20076;-66
2021/11/16 04:40:08;;;;;;;7.18;5.22;;;21.00;53.30;;;;;;6208611;28;20188;-67
2021/11/16 04:43:17;;;;;;;6.95;4.95;;;21.00;53.30;;;;;;6207461;28;20125;-66
2021/11/16 04:46:20;;;;;;;6.20;4.93;;;21.00;53.20;;;;;;6216245;28;20030;-67
2021/11/16 04:49:30;;;;;;;6.20;4.55;;;21.00;53.20;;;;;;6193405;28;20132;-67
2021/11/16 04:52:44;;;;;;;7.72;5.47;;;21.00;53.20;;;;;;6201775;28;20022;-66
2021/11/16 04:59:26;;;;;;;7.27;5.20;;;21.00;53.20;;;;;;6217555;28;20610;-66
2021/11/16 05:05:37;;;;;;;6.88;4.50;;;20.90;53.20;;;;;;6217224;28;20032;-66
2021/11/16 05:08:40;;;;;;;8.10;5.32;;;21.00;53.30;;;;;;6219778;28;20030;-66
2021/11/16 05:11:40;;;;;;;7.13;5.28;;;21.00;53.30;;;;;;6192219;28;20383;-66
2021/11/16 05:14:41;;;;;;;6.82;5.00;;;21.00;53.30;;;;;;6194951;28;20034;-66
2021/11/16 05:17:43;;;;;;;6.78;5.15;;;21.00;53.30;;;;;;6192396;28;20026;-66
2021/11/16 05:20:43;;;;;;;8.05;4.95;;;21.00;53.20;;;;;;6192851;28;20034;-67
2021/11/16 05:23:52;;;;;;;6.95;4.57;;;21.00;53.20;;;;;;6192881;28;20152;-66
2021/11/16 05:26:54;;;;;;;8.27;5.65;;;21.00;53.20;;;;;;6202314;28;20089;-66
2021/11/16 05:29:54;;;;;;;7.00;5.10;;;21.00;53.20;;;;;;6187292;28;20469;-66
2021/11/16 05:32:57;;;;;;;7.40;5.05;;;21.00;53.20;;;;;;6183909;28;20073;-67
2021/11/16 05:35:59;;;;;;;8.35;4.97;;;21.00;53.20;;;;;;6192390;28;20018;-66
2021/11/16 05:38:59;;;;;;;7.70;5.25;;;21.00;53.20;;;;;;6215318;28;20045;-66
2021/11/16 05:42:00;;;;;;;8.20;5.43;;;21.00;53.20;;;;;;6216476;28;20022;-66
2021/11/16 05:45:03;;;;;;;6.13;4.75;;;21.00;53.30;;;;;;6216562;28;20029;-66
2021/11/16 05:48:04;;;;;;;7.60;5.88;;;21.00;53.20;;;;;;6216595;28;20018;-66
2021/11/16 05:51:06;;;;;;;7.35;4.80;;;21.00;53.20;;;;;;6216579;28;20080;-66
2021/11/16 05:54:14;;;;;;;7.22;5.13;;;21.00;53.20;;;;;;6216326;28;20026;-66
2021/11/16 05:57:15;;;;;;;6.65;4.75;;;21.00;53.30;;;;;;6216199;28;20052;-66
2021/11/16 06:00:17;;;;;;;7.78;5.40;;;21.00;53.20;;;;;;6216849;28;20026;-66
2021/11/16 06:03:19;;;;;;;7.07;5.25;;;21.00;53.30;;;;;;6208234;28;20120;-66
2021/11/16 06:06:25;;;;;;;7.00;5.03;;;21.00;53.20;;;;;;6216907;28;20089;-66
2021/11/16 06:09:27;;;;;;;8.00;5.28;;;21.00;53.20;;;;;;6216404;28;20052;-66
2021/11/16 06:12:28;;;;;;;7.93;5.70;;;21.00;53.20;;;;;;6211685;28;20050;-66
2021/11/16 06:15:28;;;;;;;6.78;5.03;;;21.00;53.30;;;;;;6192304;28;20084;-66
2021/11/16 06:18:29;;;;;;;6.97;5.05;;;21.00;53.30;;;;;;6202253;28;20057;-66
2021/11/16 06:21:30;;;;;;;6.70;4.88;;;21.00;53.30;;;;;;6216358;28;20022;-66
2021/11/16 06:24:31;;;;;;;6.20;5.05;;;21.00;53.20;;;;;;6198074;28;20600;-66
2021/11/16 06:27:32;;;;;;;7.80;5.35;;;21.00;53.20;;;;;;6204377;28;20113;-66
2021/11/16 06:30:33;;;;;;;7.65;5.40;;;21.00;53.10;;;;;;6195504;28;20037;-66
2021/11/16 06:33:33;;;;;;;6.68;5.18;;;21.00;53.20;;;;;;6207445;28;20037;-66
2021/11/16 06:36:38;;;;;;;7.85;5.18;;;21.00;53.10;;;;;;6216069;28;20361;-66
2021/11/16 06:39:39;;;;;;;7.85;5.43;;;21.00;53.10;;;;;;6206229;28;20019;-66
2021/11/16 06:42:39;;;;;;;6.65;4.82;;;21.00;53.10;;;;;;6202832;28;20030;-66
2021/11/16 06:45:40;;;;;;;7.40;5.38;;;21.00;53.10;;;;;;6215908;28;20092;-66
2021/11/16 06:48:40;;;;;;;7.07;4.93;;;21.00;53.10;;;;;;6195715;28;20042;-66
2021/11/16 06:51:42;;;;;;;8.00;5.45;;;21.00;53.10;;;;;;6193362;28;20030;-66
2021/11/16 06:54:43;;;;;;;7.97;5.57;;;21.00;53.10;;;;;;6218650;28;20520;-67
2021/11/16 06:57:47;;;;;;;8.55;5.70;;;21.00;53.20;;;;;;6211024;28;20034;-66
2021/11/16 07:00:48;;;;;;;7.07;5.10;;;21.00;53.20;;;;;;6188546;28;20019;-67
2021/11/16 07:03:50;;;;;;;7.35;5.22;;;21.00;53.20;;;;;;6210331;28;20081;-66
2021/11/16 07:06:52;;;;;;;7.50;5.53;;;21.00;53.20;;;;;;6199184;28;20069;-66
2021/11/16 07:09:54;;;;;;;7.80;5.40;;;21.00;53.20;;;;;;6200869;28;20444;-66
2021/11/16 07:13:06;;;;;;;7.45;5.28;;;21.00;53.20;;;;;;6200350;28;20492;-66
2021/11/16 07:16:13;;;;;;;8.32;5.75;;;21.00;53.20;;;;;;6213502;28;20026;-66
2021/11/16 07:19:14;;;;;;;6.55;5.07;;;21.00;53.20;;;;;;6198068;28;20026;-66
2021/11/16 07:22:23;;;;;;;7.65;5.18;;;21.00;53.20;;;;;;6196941;28;20515;-66
2021/11/16 07:25:26;;;;;;;7.32;5.13;;;21.00;53.20;;;;;;6205075;28;20028;-66
2021/11/16 07:28:27;;;;;;;7.78;5.63;;;21.10;53.30;;;;;;6221269;28;20480;-66
2021/11/16 07:31:27;;;;;;;8.10;5.40;;;21.00;53.20;;;;;;6193897;28;20062;-66
2021/11/16 07:34:30;;;;;;;7.70;5.25;;;21.00;53.20;;;;;;6222337;28;20398;-66
2021/11/16 07:37:35;;;;;;;7.50;5.07;;;21.00;53.20;;;;;;6222339;28;20029;-66
2021/11/16 07:40:41;;;;;;;7.65;5.07;;;21.00;53.20;;;;;;6222304;28;20526;-66
2021/11/16 07:43:41;;;;;;;6.88;5.18;;;21.00;53.20;;;;;;6220649;28;20030;-67
2021/11/16 07:46:55;;;;;;;7.90;5.35;;;21.10;53.30;;;;;;6221440;28;20030;-67
2021/11/16 07:49:56;;;;;;;7.50;5.10;;;21.00;53.20;;;;;;6222163;28;20033;-67
2021/11/16 07:53:17;;;;;;;7.60;5.50;;;21.10;53.30;;;;;;6209832;28;20431;-66
2021/11/16 07:56:23;;;;;;;8.70;5.72;;;21.00;53.20;;;;;;6197356;28;20526;-66
2021/11/16 07:59:24;;;;;;;7.40;5.05;;;21.10;53.30;;;;;;6220671;28;20533;-66
2021/11/16 08:02:32;;;;;;;8.48;5.88;;;21.10;53.40;;;;;;6221653;28;20022;-67
2021/11/16 08:12:21;;;;;;;7.45;5.72;;;21.10;53.30;;;;;;6221779;28;20032;-66
2021/11/16 08:15:10;;;;;;;7.97;5.50;;;21.10;53.30;;;;;;6198521;28;20125;-66
2021/11/16 08:18:14;;;;;;;7.80;5.63;;;21.10;53.30;;;;;;6196386;28;20038;-66
2021/11/16 08:21:17;;;;;;;9.70;5.60;;;21.10;53.30;;;;;;6195684;28;20037;-66
2021/11/16 08:24:17;;;;;;;9.70;5.63;;;21.10;53.30;;;;;;6196983;28;20026;-66
2021/11/16 08:27:21;;;;;;;7.90;5.55;;;21.10;53.30;;;;;;6218611;28;20045;-67
2021/11/16 08:30:23;;;;;;;7.90;5.82;;;21.00;53.20;;;;;;6218499;28;20057;-66
2021/11/16 08:33:24;;;;;;;7.68;5.32;;;21.10;53.30;;;;;;6210934;28;20099;-66
2021/11/16 08:36:28;;;;;;;7.90;5.10;;;21.10;53.30;;;;;;6220952;28;20022;-66
2021/11/16 08:39:42;;;;;;;7.45;5.55;;;21.10;53.30;;;;;;6220469;28;20076;-67
2021/11/16 08:42:51;;;;;;;6.82;5.00;;;21.10;53.30;;;;;;6220626;28;20108;-67
2021/11/16 08:45:58;;;;;;;8.98;5.93;;;21.10;53.30;;;;;;6221187;28;20037;-66
2021/11/16 08:48:58;;;;;;;7.85;5.00;;;21.10;53.30;;;;;;6220243;28;20018;-66
2021/11/16 08:52:08;;;;;;;8.77;5.93;;;21.10;53.30;;;;;;6220924;28;20057;-66
2021/11/16 08:55:16;;;;;;;7.00;5.50;;;21.10;53.30;;;;;;6220741;28;20036;-66
2021/11/16 08:58:18;;;;;;;8.57;5.38;;;21.10;53.30;;;;;;6206408;28;20033;-66
2021/11/16 09:01:18;;;;;;;8.70;5.90;;;21.10;53.30;;;;;;6196641;28;20391;-67
2021/11/16 09:04:25;;;;;;;7.45;5.57;;;21.10;53.20;;;;;;6219768;28;20030;-66
2021/11/16 09:07:29;;;;;;;7.25;5.20;;;21.10;53.20;;;;;;6214448;28;20487;-66
2021/11/16 09:10:37;;;;;;;7.82;5.40;;;21.10;53.20;;;;;;6195870;28;20030;-66
2021/11/16 09:13:38;;;;;;;7.55;5.50;;;21.10;53.20;;;;;;6200889;28;20531;-66
2021/11/16 09:16:41;;;;;;;9.25;6.07;;;21.10;53.30;;;;;;6208257;28;20025;-67
2021/11/16 09:19:41;;;;;;;7.47;5.57;;;21.10;53.30;;;;;;6220467;28;20479;-67
2021/11/16 09:22:42;;;;;;;7.97;5.60;;;21.10;53.30;;;;;;6219609;28;20022;-67
2021/11/16 09:25:43;;;;;;;7.70;5.70;;;21.10;53.30;;;;;;6219353;28;20030;-66
2021/11/16 09:29:05;;;;;;;8.80;5.85;;;21.10;53.20;;;;;;6197642;28;20040;-66
2021/11/16 09:32:11;;;;;;;6.90;5.25;;;21.10;53.30;;;;;;6190266;28;20515;-71
2021/11/16 09:35:12;;;;;;;8.05;5.45;;;21.10;53.30;;;;;;6235022;28;20022;-67
2021/11/16 09:38:13;;;;;;;8.63;5.80;;;21.10;53.30;;;;;;6219596;28;20036;-71
2021/11/16 09:41:20;;;;;;;11.20;7.10;;;21.10;53.30;;;;;;6220012;28;20034;-71
2021/11/16 09:44:24;;;;;;;9.65;6.35;;;21.10;53.30;;;;;;6219927;28;20030;-68
2021/11/16 09:47:29;;;;;;;23.58;11.63;;;21.10;53.10;;;;;;6213109;28;20034;-68
2021/11/16 09:50:30;;;;;;;17.52;8.70;;;21.10;52.10;;;;;;6195376;28;20038;-69
2021/11/16 09:53:30;;;;;;;21.73;10.18;;;21.10;52.30;;;;;;6211943;28;20041;-68
2021/11/16 09:56:32;;;;;;;16.25;9.65;;;21.10;52.40;;;;;;6219191;28;20026;-69
2021/11/16 09:59:32;;;;;;;17.05;10.55;;;21.10;52.50;;;;;;6219321;28;20080;-69
2021/11/16 10:02:34;;;;;;;18.65;11.15;;;21.10;52.50;;;;;;6219299;28;20038;-69
2021/11/16 10:05:58;;;;;;;18.05;11.43;;;21.10;52.40;;;;;;6219242;28;20458;-69
2021/11/16 10:08:59;;;;;;;18.40;11.05;;;21.10;52.30;;;;;;6218032;28;20119;-69
2021/11/16 10:12:00;;;;;;;18.88;11.50;;;21.10;52.20;;;;;;6218570;28;20056;-69
2021/11/16 10:15:01;;;;;;;19.42;11.48;;;21.10;52.20;;;;;;6198617;28;20019;-68
2021/11/16 10:18:03;;;;;;;18.30;10.77;;;21.10;52.20;;;;;;6203679;28;20117;-68
2021/11/16 10:21:06;;;;;;;16.60;10.25;;;21.10;52.20;;;;;;6234366;28;20037;-68
2021/11/16 10:24:30;;;;;;;15.98;10.07;;;21.10;52.10;;;;;;6217862;28;20411;-68
2021/11/16 10:27:34;;;;;;;16.45;10.73;;;21.10;52.30;;;;;;6233880;28;20030;-69
2021/11/16 10:30:36;;;;;;;17.23;10.55;;;21.10;52.30;;;;;;6212914;28;20034;-69
2021/11/16 10:33:49;;;;;;;16.80;10.95;;;21.10;52.30;;;;;;6220351;28;20030;-69
2021/11/16 10:37:04;;;;;;;17.08;10.05;;;21.10;52.40;;;;;;6222298;28;20395;-69
2021/11/16 10:40:09;;;;;;;18.45;10.38;;;21.10;53.00;;;;;;6224175;28;20104;-69
2021/11/16 10:43:10;;;;;;;14.48;9.75;;;21.10;52.30;;;;;;6223125;28;20025;-68
2021/11/16 10:46:12;;;;;;;14.73;9.82;;;21.10;52.40;;;;;;6222586;28;20105;-69
2021/11/16 10:49:16;;;;;;;14.23;9.52;;;21.10;52.40;;;;;;6198698;28;20069;-69
2021/11/16 10:52:27;;;;;;;16.58;9.65;;;21.10;52.40;;;;;;6205514;28;20037;-69
2021/11/16 10:55:44;;;;;;;13.63;9.40;;;21.10;52.40;;;;;;6238456;28;20026;-68
2021/11/16 10:58:46;;;;;;;17.02;9.98;;;21.10;52.40;;;;;;6223611;28;20030;-69
2021/11/16 11:01:52;;;;;;;14.98;9.45;;;21.10;52.40;;;;;;6223273;28;20475;-68
2021/11/16 11:04:52;;;;;;;13.13;9.35;;;21.10;52.50;;;;;;6222720;28;20501;-69
2021/11/16 11:07:53;;;;;;;13.00;8.50;;;21.10;52.50;;;;;;6212364;28;20052;-68
2021/11/16 11:10:54;;;;;;;15.43;9.88;;;21.10;52.60;;;;;;6198588;28;20034;-68
2021/11/16 11:13:59;;;;;;;14.63;9.40;;;21.10;52.50;;;;;;6202406;28;20058;-68
2021/11/16 11:17:07;;;;;;;16.08;9.07;;;21.10;52.60;;;;;;6197633;28;20027;-68
2021/11/16 11:20:12;;;;;;;13.73;8.77;;;21.10;52.60;;;;;;6199235;28;20098;-69
2021/11/16 11:23:35;;;;;;;;;;;21.10;52.50;;;;;;6208033;28;20022;-68
2021/11/16 11:26:44;;;;;;;16.77;9.10;;;21.10;52.60;;;;;;6215885;28;19992;-69
2021/11/16 11:29:55;;;;;;;15.18;8.93;;;21.10;52.60;;;;;;6198428;28;20022;-68
2021/11/16 11:32:55;;;;;;;13.38;9.02;;;21.10;52.60;;;;;;6212892;28;20510;-68
2021/11/16 11:36:20;;;;;;;15.15;8.65;;;21.10;52.60;;;;;;6222680;28;20022;-69
2021/11/16 11:39:22;;;;;;;12.10;8.97;;;21.10;52.60;;;;;;6172372;28;20033;-69
2021/11/16 11:42:23;;;;;;;12.15;8.77;;;21.10;52.70;;;;;;6192435;28;20022;-68
2021/11/16 11:45:32;;;;;;;11.10;7.68;;;21.10;52.70;;;;;;6251357;28;20059;-69
2021/11/16 11:48:33;;;;;;;13.38;8.75;;;21.10;52.70;;;;;;6268228;28;20068;-68
2021/11/16 11:51:34;;;;;;;12.43;8.73;;;21.10;52.70;;;;;;6251388;28;20045;-68
2021/11/16 11:54:35;;;;;;;13.60;8.05;;;21.10;52.70;;;;;;6268296;28;20156;-69
2021/11/16 11:57:36;;;;;;;10.90;7.60;;;21.10;52.70;;;;;;6242109;28;20056;-69
2021/11/16 12:00:39;;;;;;;12.45;8.43;;;21.10;52.70;;;;;;6226691;28;20033;-69
2021/11/16 12:03:42;;;;;;;12.60;8.38;;;21.10;52.70;;;;;;6243068;28;20021;-69
2021/11/16 12:06:44;;;;;;;11.07;7.90;;;21.10;52.70;;;;;;6251312;28;20037;-69
2021/11/16 12:09:45;;;;;;;11.63;7.97;;;21.10;52.70;;;;;;6267730;28;20029;-69
2021/11/16 12:12:45;;;;;;;12.38;8.38;;;21.10;52.80;;;;;;6265093;28;20418;-69
2021/11/16 12:16:12;;;;;;;10.90;8.10;;;21.10;52.70;;;;;;6225196;28;20046;-68
2021/11/16 12:19:14;;;;;;;11.88;8.25;;;21.10;52.70;;;;;;6230902;28;20037;-68
2021/11/16 12:22:23;;;;;;;11.38;7.50;;;21.10;52.70;;;;;;6220307;28;20029;-68
2021/11/16 12:25:24;;;;;;;11.48;7.60;;;21.10;52.70;;;;;;6221948;28;20090;-69
2021/11/16 12:28:30;;;;;;;10.73;7.53;;;21.10;52.80;;;;;;6221521;28;20040;-69
2021/11/16 12:31:31;;;;;;;10.70;7.40;;;21.10;52.80;;;;;;6201950;28;20393;-68
2021/11/16 12:34:38;;;;;;;12.18;8.05;;;21.10;52.80;;;;;;6221775;28;20030;-69
2021/11/16 12:37:52;;;;;;;12.02;8.07;;;21.10;52.80;;;;;;6219957;28;20490;-68
2021/11/16 12:40:53;;;;;;;10.85;7.43;;;21.10;52.80;;;;;;6220168;28;20053;-69
2021/11/16 12:43:55;;;;;;;11.25;7.47;;;21.10;52.80;;;;;;6220899;28;20042;-69
2021/11/16 12:47:08;;;;;;;11.25;7.80;;;21.10;52.80;;;;;;6219864;28;20092;-69
2021/11/16 12:50:15;;;;;;;11.07;7.80;;;21.10;52.80;;;;;;6236135;28;20575;-68
2021/11/16 12:53:15;;;;;;;10.85;7.45;;;21.10;52.80;;;;;;6220200;28;20543;-69
2021/11/16 12:56:17;;;;;;;11.45;7.95;;;21.10;52.80;;;;;;6219423;28;20034;-68
2021/11/16 12:59:20;;;;;;;11.55;7.65;;;21.10;52.80;;;;;;6199010;28;20026;-69
2021/11/16 13:02:24;;;;;;;11.02;7.47;;;21.10;52.80;;;;;;6200544;28;20213;-68
2021/11/16 13:05:28;;;;;;;12.00;7.97;;;21.10;52.80;;;;;;6220672;28;20057;-69
2021/11/16 13:08:29;;;;;;;10.15;7.03;;;21.10;52.80;;;;;;6220428;28;20058;-68
2021/11/16 13:11:41;;;;;;;10.00;7.45;;;21.10;52.80;;;;;;6220703;28;20105;-68
2021/11/16 13:14:43;;;;;;;11.98;7.82;;;21.10;52.90;;;;;;6202739;28;20448;-69
2021/11/16 13:17:53;;;;;;;10.80;7.25;;;21.10;52.90;;;;;;6195477;28;20117;-69
2021/11/16 13:21:07;;;;;;;10.88;7.43;;;21.10;52.80;;;;;;6196358;28;20105;-70
2021/11/16 13:24:11;;;;;;;10.20;6.88;;;21.10;52.90;;;;;;6196812;28;20397;-70
2021/11/16 13:27:11;;;;;;;10.25;6.85;;;21.10;52.90;;;;;;6196671;28;20499;-68
2021/11/16 13:30:20;;;;;;;11.18;7.43;;;21.10;52.90;;;;;;6196508;28;20050;-71
2021/11/16 13:33:48;;;;;;;12.43;7.28;;;21.10;52.90;;;;;;6195434;28;20033;-72
2021/11/16 13:36:54;;;;;;;10.48;7.05;;;21.10;52.90;;;;;;6200755;28;20041;-71
2021/11/16 13:40:29;;;;;;;10.43;6.53;;;21.10;52.90;;;;;;6219918;28;20022;-72
2021/11/16 13:43:29;;;;;;;10.32;6.88;;;21.10;53.50;;;;;;6187155;28;20392;-71
2021/11/16 13:46:30;;;;;;;11.77;7.78;;;21.10;52.90;;;;;;6171658;28;20065;-70
2021/11/16 13:49:40;;;;;;;11.98;8.13;;;21.10;52.90;;;;;;6172976;28;20026;-70
2021/11/16 13:52:46;;;;;;;10.57;6.90;;;21.10;52.90;;;;;;6192532;28;20033;-70
2021/11/16 13:55:47;;;;;;;10.55;6.95;;;21.10;52.90;;;;;;6213139;28;20034;-70
2021/11/16 13:58:48;;;;;;;10.48;6.90;;;21.10;52.90;;;;;;6196730;28;20035;-70
2021/11/16 14:01:49;;;;;;;9.63;6.88;;;21.10;52.90;;;;;;6195627;28;20387;-71
2021/11/16 14:05:02;;;;;;;10.07;6.85;;;21.10;52.90;;;;;;6196697;28;20049;-70
2021/11/16 14:08:07;;;;;;;9.57;6.65;;;21.10;52.90;;;;;;6196922;28;20120;-70
2021/11/16 14:11:09;;;;;;;9.52;6.78;;;21.10;52.90;;;;;;6211845;28;20022;-70
2021/11/16 14:14:15;;;;;;;9.50;6.85;;;21.10;52.90;;;;;;6196091;28;20500;-70
2021/11/16 14:17:15;;;;;;;9.40;6.85;;;21.10;52.90;;;;;;6195167;28;20109;-70
2021/11/16 14:20:16;;;;;;;10.43;6.53;;;21.10;52.90;;;;;;6196666;28;20053;-70
2021/11/16 14:23:19;;;;;;;10.63;7.03;;;21.10;52.90;;;;;;6196463;28;20030;-70
2021/11/16 14:26:25;;;;;;;10.82;7.22;;;21.10;52.90;;;;;;6201181;28;20323;-70
2021/11/16 14:29:26;;;;;;;8.07;5.97;;;21.10;52.90;;;;;;6195702;28;20038;-71
2021/11/16 14:32:27;;;;;;;9.68;6.88;;;21.10;52.90;;;;;;6196189;28;20026;-70
2021/11/16 14:35:28;;;;;;;9.05;6.63;;;21.10;52.90;;;;;;6196494;28;20455;-70
2021/11/16 14:38:34;;;;;;;9.65;6.68;;;21.10;52.90;;;;;;6196348;28;20030;-70
2021/11/16 14:41:41;;;;;;;10.18;6.65;;;21.10;52.90;;;;;;6196626;28;20387;-70
2021/11/16 14:44:53;;;;;;;7.63;5.97;;;21.10;52.90;;;;;;6195119;28;20030;-70
2021/11/16 14:47:57;;;;;;;9.77;6.65;;;21.10;52.90;;;;;;6187023;28;20054;-70
2021/11/16 14:51:16;;;;;;;9.02;6.40;;;21.10;52.90;;;;;;6172417;28;20366;-70
2021/11/16 14:54:20;;;;;;;8.48;5.90;;;21.10;52.90;;;;;;6171059;28;20118;-70
2021/11/16 14:57:55;;;;;;;9.00;6.55;;;21.10;52.90;;;;;;6178546;28;20023;-70
2021/11/16 15:00:56;;;;;;;9.95;6.55;;;21.10;52.90;;;;;;6196847;28;20018;-70
2021/11/16 15:04:02;;;;;;;9.75;6.68;;;21.10;52.90;;;;;;6196066;28;20031;-70
2021/11/16 15:07:18;;;;;;;9.23;6.28;;;21.10;52.90;;;;;;6195020;28;20034;-70
2021/11/16 15:10:24;;;;;;;8.75;6.40;;;21.10;53.00;;;;;;6196433;28;20033;-70
2021/11/16 15:13:29;;;;;;;9.07;6.70;;;21.10;52.90;;;;;;6194439;28;20132;-70
2021/11/16 15:16:30;;;;;;;8.85;6.32;;;21.10;52.90;;;;;;6199800;28;20180;-70
2021/11/16 15:19:32;;;;;;;8.90;6.43;;;21.10;53.00;;;;;;6221122;28;20038;-70
2021/11/16 15:22:34;;;;;;;9.35;6.38;;;21.10;53.00;;;;;;6220327;28;20048;-70
2021/11/16 15:25:39;;;;;;;10.00;6.45;;;21.10;53.00;;;;;;6198981;28;20023;-70
2021/11/16 15:28:41;;;;;;;;;;;21.10;53.00;;;;;;6199189;28;20037;-70
2021/11/16 15:31:49;;;;;;;8.30;6.13;;;21.10;52.90;;;;;;6199018;28;19906;-70
2021/11/16 15:34:49;;;;;;;8.75;6.32;;;21.10;52.90;;;;;;6199787;28;20022;-71
2021/11/16 15:37:55;;;;;;;9.77;6.43;;;21.10;52.90;;;;;;6199960;28;20038;-70
2021/11/16 15:41:29;;;;;;;9.60;6.18;;;21.10;53.00;;;;;;6199974;28;20030;-70
2021/11/16 15:48:27;;;;;;;9.15;6.30;;;21.10;53.00;;;;;;6187281;28;20027;-70
2021/11/16 15:51:36;;;;;;;9.02;6.22;;;21.10;53.00;;;;;;6199580;28;20476;-70
2021/11/16 15:58:12;;;;;;;11.52;6.85;;;21.10;53.00;;;;;;6199316;28;20046;-70
2021/11/16 16:01:16;;;;;;;9.90;6.53;;;21.10;53.00;;;;;;6199550;28;20358;-70
2021/11/16 16:04:19;;;;;;;10.85;7.35;;;21.10;53.00;;;;;;6197761;28;20026;-70
2021/11/16 16:07:21;;;;;;;8.18;5.82;;;21.10;53.00;;;;;;6201657;28;20392;-70
2021/11/16 16:10:35;;;;;;;9.40;6.32;;;21.10;53.00;;;;;;6223521;28;20022;-70
2021/11/16 16:13:35;;;;;;;9.35;6.20;;;21.10;52.90;;;;;;6211103;28;20050;-70